Terminal Aerodrome Forecast
Issued by NWS Charleston, WV

Current Version | Previous Version | Text Only | Print | Product List | Glossary Off
Versions: 1 2 3 4 5 6 7 8 9 10 11 12 13 14 15 16 17 18 19 20 21 22

000
FTUS41 KRLX 031100
TAFCRW
TAF
KCRW 031121Z 0312/0412 13005KT P6SM OVC130
     FM031300 14007KT P6SM -SHRA OVC070
     FM031700 16008KT P6SM -SHRA OVC030
     FM032300 19012KT P6SM OVC020
     FM040200 21009KT P6SM OVC015
     FM040700 29007KT 2SM RA BR OVC010=

USA.gov is the U.S. government's official web portal to all federal, state and local government web resources and services.